sensor_id;sensor_type;location;lat;lon;timestamp;P1;durP1;ratioP1;P2;durP2;ratioP2
64643;SDS011;51056;50.330;7.914;2023-09-12T00:01:55;11.88;;;5.50;;
64643;SDS011;51056;50.330;7.914;2023-09-12T00:04:58;9.45;;;5.32;;
64643;SDS011;51056;50.330;7.914;2023-09-12T00:08:02;18.50;;;6.13;;
64643;SDS011;51056;50.330;7.914;2023-09-12T00:11:06;13.05;;;5.95;;
64643;SDS011;51056;50.330;7.914;2023-09-12T00:14:17;16.85;;;5.88;;
64643;SDS011;51056;50.330;7.914;2023-09-12T00:17:21;13.13;;;5.70;;
64643;SDS011;51056;50.330;7.914;2023-09-12T00:20:24;11.38;;;5.88;;
64643;SDS011;51056;50.330;7.914;2023-09-12T00:23:28;16.23;;;5.43;;
64643;SDS011;51056;50.330;7.914;2023-09-12T00:26:31;12.13;;;5.57;;
64643;SDS011;51056;50.330;7.914;2023-09-12T00:29:36;13.43;;;6.30;;
64643;SDS011;51056;50.330;7.914;2023-09-12T00:32:39;14.25;;;6.22;;
64643;SDS011;51056;50.330;7.914;2023-09-12T00:35:43;15.80;;;5.60;;
64643;SDS011;51056;50.330;7.914;2023-09-12T00:38:49;14.32;;;6.25;;
64643;SDS011;51056;50.330;7.914;2023-09-12T00:41:52;14.82;;;5.30;;
64643;SDS011;51056;50.330;7.914;2023-09-12T00:44:55;13.80;;;6.00;;
64643;SDS011;51056;50.330;7.914;2023-09-12T00:47:58;10.95;;;5.63;;
64643;SDS011;51056;50.330;7.914;2023-09-12T00:51:05;15.40;;;6.32;;
64643;SDS011;51056;50.330;7.914;2023-09-12T00:54:08;11.00;;;5.50;;
64643;SDS011;51056;50.330;7.914;2023-09-12T00:57:13;12.95;;;5.28;;
64643;SDS011;51056;50.330;7.914;2023-09-12T01:00:16;14.38;;;6.35;;
64643;SDS011;51056;50.330;7.914;2023-09-12T01:03:19;8.55;;;5.43;;
64643;SDS011;51056;50.330;7.914;2023-09-12T01:06:23;14.07;;;5.90;;
64643;SDS011;51056;50.330;7.914;2023-09-12T01:09:29;18.40;;;6.15;;
64643;SDS011;51056;50.330;7.914;2023-09-12T01:12:32;13.57;;;5.70;;
64643;SDS011;51056;50.330;7.914;2023-09-12T01:15:36;14.93;;;5.82;;
64643;SDS011;51056;50.330;7.914;2023-09-12T01:18:39;18.23;;;6.07;;
64643;SDS011;51056;50.330;7.914;2023-09-12T01:28:05;17.63;;;5.65;;
64643;SDS011;51056;50.330;7.914;2023-09-12T01:31:11;11.48;;;6.07;;
64643;SDS011;51056;50.330;7.914;2023-09-12T01:34:15;13.07;;;5.40;;
64643;SDS011;51056;50.330;7.914;2023-09-12T01:37:19;14.40;;;6.30;;
64643;SDS011;51056;50.330;7.914;2023-09-12T01:40:24;11.27;;;5.57;;
64643;SDS011;51056;50.330;7.914;2023-09-12T01:43:40;17.13;;;5.88;;
64643;SDS011;51056;50.330;7.914;2023-09-12T01:46:45;11.85;;;5.25;;
64643;SDS011;51056;50.330;7.914;2023-09-12T01:49:54;13.93;;;6.47;;
64643;SDS011;51056;50.330;7.914;2023-09-12T01:53:00;13.40;;;6.22;;
64643;SDS011;51056;50.330;7.914;2023-09-12T01:56:03;11.80;;;5.65;;
64643;SDS011;51056;50.330;7.914;2023-09-12T01:59:07;11.82;;;5.72;;
64643;SDS011;51056;50.330;7.914;2023-09-12T02:02:10;11.85;;;5.22;;
64643;SDS011;51056;50.330;7.914;2023-09-12T02:05:14;14.13;;;6.10;;
64643;SDS011;51056;50.330;7.914;2023-09-12T02:08:25;15.07;;;6.00;;
64643;SDS011;51056;50.330;7.914;2023-09-12T02:11:28;12.90;;;5.78;;
64643;SDS011;51056;50.330;7.914;2023-09-12T02:14:32;14.27;;;5.95;;
64643;SDS011;51056;50.330;7.914;2023-09-12T02:17:36;18.33;;;6.47;;
64643;SDS011;51056;50.330;7.914;2023-09-12T02:20:41;11.68;;;5.20;;
64643;SDS011;51056;50.330;7.914;2023-09-12T02:23:48;14.57;;;5.43;;
64643;SDS011;51056;50.330;7.914;2023-09-12T02:26:51;11.13;;;5.68;;
64643;SDS011;51056;50.330;7.914;2023-09-12T02:29:55;15.63;;;5.95;;
64643;SDS011;51056;50.330;7.914;2023-09-12T02:32:58;8.45;;;4.50;;
64643;SDS011;51056;50.330;7.914;2023-09-12T02:36:02;14.55;;;5.90;;
64643;SDS011;51056;50.330;7.914;2023-09-12T02:39:05;18.15;;;6.00;;
64643;SDS011;51056;50.330;7.914;2023-09-12T02:42:08;10.70;;;6.20;;
64643;SDS011;51056;50.330;7.914;2023-09-12T02:45:30;11.63;;;5.97;;
64643;SDS011;51056;50.330;7.914;2023-09-12T02:48:33;12.25;;;5.60;;
64643;SDS011;51056;50.330;7.914;2023-09-12T02:51:39;12.25;;;5.68;;
64643;SDS011;51056;50.330;7.914;2023-09-12T02:54:44;10.57;;;5.65;;
64643;SDS011;51056;50.330;7.914;2023-09-12T02:57:47;10.50;;;5.07;;
64643;SDS011;51056;50.330;7.914;2023-09-12T03:00:51;13.05;;;5.75;;
64643;SDS011;51056;50.330;7.914;2023-09-12T03:03:57;12.30;;;5.68;;
64643;SDS011;51056;50.330;7.914;2023-09-12T03:07:00;12.15;;;5.30;;
64643;SDS011;51056;50.330;7.914;2023-09-12T03:10:03;11.35;;;5.20;;
64643;SDS011;51056;50.330;7.914;2023-09-12T03:13:07;16.50;;;5.53;;
64643;SDS011;51056;50.330;7.914;2023-09-12T03:16:11;14.23;;;7.07;;
64643;SDS011;51056;50.330;7.914;2023-09-12T03:19:14;15.85;;;5.20;;
64643;SDS011;51056;50.330;7.914;2023-09-12T03:22:17;14.60;;;5.97;;
64643;SDS011;51056;50.330;7.914;2023-09-12T03:25:21;16.45;;;6.72;;
64643;SDS011;51056;50.330;7.914;2023-09-12T03:28:24;13.25;;;5.15;;
64643;SDS011;51056;50.330;7.914;2023-09-12T03:31:27;11.63;;;5.47;;
64643;SDS011;51056;50.330;7.914;2023-09-12T03:34:32;10.70;;;5.88;;
64643;SDS011;51056;50.330;7.914;2023-09-12T03:37:35;12.88;;;5.63;;
64643;SDS011;51056;50.330;7.914;2023-09-12T03:40:42;12.75;;;5.97;;
64643;SDS011;51056;50.330;7.914;2023-09-12T03:43:46;10.60;;;5.85;;
64643;SDS011;51056;50.330;7.914;2023-09-12T03:46:49;10.75;;;6.13;;
64643;SDS011;51056;50.330;7.914;2023-09-12T03:49:52;11.25;;;5.53;;
64643;SDS011;51056;50.330;7.914;2023-09-12T03:52:56;8.65;;;5.25;;
64643;SDS011;51056;50.330;7.914;2023-09-12T03:55:59;12.77;;;5.25;;
64643;SDS011;51056;50.330;7.914;2023-09-12T03:59:02;12.10;;;5.30;;
64643;SDS011;51056;50.330;7.914;2023-09-12T04:02:06;9.35;;;5.20;;
64643;SDS011;51056;50.330;7.914;2023-09-12T04:05:09;10.90;;;5.43;;
64643;SDS011;51056;50.330;7.914;2023-09-12T04:08:13;9.85;;;5.22;;
64643;SDS011;51056;50.330;7.914;2023-09-12T04:11:16;12.90;;;5.32;;
64643;SDS011;51056;50.330;7.914;2023-09-12T04:14:20;11.70;;;5.25;;
64643;SDS011;51056;50.330;7.914;2023-09-12T04:17:24;12.45;;;6.47;;
64643;SDS011;51056;50.330;7.914;2023-09-12T04:20:27;11.63;;;5.38;;
64643;SDS011;51056;50.330;7.914;2023-09-12T04:23:30;13.30;;;5.93;;
64643;SDS011;51056;50.330;7.914;2023-09-12T04:26:34;11.63;;;6.00;;
64643;SDS011;51056;50.330;7.914;2023-09-12T04:29:38;12.80;;;5.72;;
64643;SDS011;51056;50.330;7.914;2023-09-12T04:32:42;10.90;;;5.05;;
64643;SDS011;51056;50.330;7.914;2023-09-12T04:35:45;11.43;;;5.70;;
64643;SDS011;51056;50.330;7.914;2023-09-12T04:38:51;15.70;;;5.43;;
64643;SDS011;51056;50.330;7.914;2023-09-12T04:41:55;12.13;;;6.03;;
64643;SDS011;51056;50.330;7.914;2023-09-12T04:44:58;11.50;;;5.45;;
64643;SDS011;51056;50.330;7.914;2023-09-12T04:48:01;16.65;;;5.93;;
64643;SDS011;51056;50.330;7.914;2023-09-12T04:51:05;13.13;;;5.50;;
64643;SDS011;51056;50.330;7.914;2023-09-12T04:54:08;11.73;;;5.82;;
64643;SDS011;51056;50.330;7.914;2023-09-12T04:57:12;12.20;;;6.63;;
64643;SDS011;51056;50.330;7.914;2023-09-12T05:00:15;10.13;;;5.75;;
64643;SDS011;51056;50.330;7.914;2023-09-12T05:03:19;13.07;;;5.93;;
64643;SDS011;51056;50.330;7.914;2023-09-12T05:06:22;16.48;;;6.50;;
64643;SDS011;51056;50.330;7.914;2023-09-12T05:09:25;14.05;;;6.07;;
64643;SDS011;51056;50.330;7.914;2023-09-12T05:12:34;10.88;;;5.78;;
64643;SDS011;51056;50.330;7.914;2023-09-12T05:15:42;13.73;;;5.85;;
64643;SDS011;51056;50.330;7.914;2023-09-12T05:18:45;12.10;;;6.55;;
64643;SDS011;51056;50.330;7.914;2023-09-12T05:21:48;10.63;;;6.20;;
64643;SDS011;51056;50.330;7.914;2023-09-12T05:24:52;13.32;;;5.68;;
64643;SDS011;51056;50.330;7.914;2023-09-12T05:31:26;15.60;;;6.22;;
64643;SDS011;51056;50.330;7.914;2023-09-12T05:34:29;9.18;;;5.25;;
64643;SDS011;51056;50.330;7.914;2023-09-12T05:37:33;15.90;;;6.28;;
64643;SDS011;51056;50.330;7.914;2023-09-12T05:40:36;13.35;;;6.40;;
64643;SDS011;51056;50.330;7.914;2023-09-12T05:43:39;13.70;;;6.88;;
64643;SDS011;51056;50.330;7.914;2023-09-12T05:50:12;9.07;;;4.85;;
64643;SDS011;51056;50.330;7.914;2023-09-12T05:53:15;13.88;;;6.10;;
64643;SDS011;51056;50.330;7.914;2023-09-12T05:56:19;15.02;;;6.22;;
64643;SDS011;51056;50.330;7.914;2023-09-12T05:59:23;15.13;;;5.88;;
64643;SDS011;51056;50.330;7.914;2023-09-12T06:02:27;9.60;;;4.97;;
64643;SDS011;51056;50.330;7.914;2023-09-12T06:05:30;11.55;;;5.60;;
64643;SDS011;51056;50.330;7.914;2023-09-12T06:08:33;8.85;;;4.88;;
64643;SDS011;51056;50.330;7.914;2023-09-12T06:11:36;10.40;;;5.65;;
64643;SDS011;51056;50.330;7.914;2023-09-12T06:14:40;11.60;;;6.13;;
64643;SDS011;51056;50.330;7.914;2023-09-12T06:17:43;10.38;;;5.75;;
64643;SDS011;51056;50.330;7.914;2023-09-12T06:20:46;18.25;;;5.65;;
64643;SDS011;51056;50.330;7.914;2023-09-12T06:24:09;11.48;;;5.20;;
64643;SDS011;51056;50.330;7.914;2023-09-12T06:27:17;13.38;;;6.38;;
64643;SDS011;51056;50.330;7.914;2023-09-12T06:30:23;16.85;;;6.45;;
64643;SDS011;51056;50.330;7.914;2023-09-12T06:33:26;13.90;;;5.35;;
64643;SDS011;51056;50.330;7.914;2023-09-12T06:36:31;13.15;;;6.32;;
64643;SDS011;51056;50.330;7.914;2023-09-12T06:39:34;12.18;;;6.45;;
64643;SDS011;51056;50.330;7.914;2023-09-12T06:42:37;17.05;;;6.15;;
64643;SDS011;51056;50.330;7.914;2023-09-12T06:45:41;11.02;;;5.85;;
64643;SDS011;51056;50.330;7.914;2023-09-12T06:48:45;11.38;;;6.40;;
64643;SDS011;51056;50.330;7.914;2023-09-12T06:51:48;9.23;;;5.85;;
64643;SDS011;51056;50.330;7.914;2023-09-12T06:54:51;12.25;;;6.88;;
64643;SDS011;51056;50.330;7.914;2023-09-12T06:57:54;12.23;;;5.88;;
64643;SDS011;51056;50.330;7.914;2023-09-12T07:01:03;10.00;;;6.35;;
64643;SDS011;51056;50.330;7.914;2023-09-12T07:04:07;14.98;;;6.55;;
64643;SDS011;51056;50.330;7.914;2023-09-12T07:07:10;11.77;;;6.80;;
64643;SDS011;51056;50.330;7.914;2023-09-12T07:10:13;13.57;;;6.78;;
64643;SDS011;51056;50.330;7.914;2023-09-12T07:13:17;10.68;;;5.95;;
64643;SDS011;51056;50.330;7.914;2023-09-12T07:16:20;7.82;;;5.90;;
64643;SDS011;51056;50.330;7.914;2023-09-12T07:19:23;14.85;;;6.53;;
64643;SDS011;51056;50.330;7.914;2023-09-12T07:22:27;11.20;;;6.50;;
64643;SDS011;51056;50.330;7.914;2023-09-12T07:25:30;18.02;;;7.38;;
64643;SDS011;51056;50.330;7.914;2023-09-12T07:28:35;16.65;;;7.07;;
64643;SDS011;51056;50.330;7.914;2023-09-12T07:31:38;13.68;;;7.32;;
64643;SDS011;51056;50.330;7.914;2023-09-12T07:34:42;15.27;;;6.22;;
64643;SDS011;51056;50.330;7.914;2023-09-12T07:37:51;11.55;;;6.43;;
64643;SDS011;51056;50.330;7.914;2023-09-12T07:40:56;19.27;;;8.98;;
64643;SDS011;51056;50.330;7.914;2023-09-12T07:44:00;15.93;;;7.47;;
64643;SDS011;51056;50.330;7.914;2023-09-12T07:47:04;19.13;;;7.68;;
64643;SDS011;51056;50.330;7.914;2023-09-12T07:50:08;22.75;;;7.40;;
64643;SDS011;51056;50.330;7.914;2023-09-12T07:53:11;14.52;;;7.00;;
64643;SDS011;51056;50.330;7.914;2023-09-12T07:56:15;18.25;;;7.43;;
64643;SDS011;51056;50.330;7.914;2023-09-12T07:59:18;21.98;;;7.30;;
64643;SDS011;51056;50.330;7.914;2023-09-12T08:02:21;25.45;;;7.75;;
64643;SDS011;51056;50.330;7.914;2023-09-12T08:05:24;17.17;;;7.97;;
64643;SDS011;51056;50.330;7.914;2023-09-12T08:08:28;17.10;;;7.90;;
64643;SDS011;51056;50.330;7.914;2023-09-12T08:11:31;18.27;;;7.28;;
64643;SDS011;51056;50.330;7.914;2023-09-12T08:14:34;19.55;;;7.50;;
64643;SDS011;51056;50.330;7.914;2023-09-12T08:17:38;20.75;;;8.45;;
64643;SDS011;51056;50.330;7.914;2023-09-12T08:20:47;15.18;;;7.15;;
64643;SDS011;51056;50.330;7.914;2023-09-12T08:23:51;23.42;;;7.65;;
64643;SDS011;51056;50.330;7.914;2023-09-12T08:26:54;17.95;;;8.00;;
64643;SDS011;51056;50.330;7.914;2023-09-12T08:29:57;19.55;;;8.38;;
64643;SDS011;51056;50.330;7.914;2023-09-12T08:33:00;20.52;;;7.82;;
64643;SDS011;51056;50.330;7.914;2023-09-12T08:36:06;27.27;;;8.90;;
64643;SDS011;51056;50.330;7.914;2023-09-12T08:39:11;30.50;;;8.82;;
64643;SDS011;51056;50.330;7.914;2023-09-12T08:42:17;19.35;;;7.93;;
64643;SDS011;51056;50.330;7.914;2023-09-12T08:45:20;15.68;;;8.70;;
64643;SDS011;51056;50.330;7.914;2023-09-12T08:48:23;22.27;;;8.75;;
64643;SDS011;51056;50.330;7.914;2023-09-12T08:51:27;22.02;;;8.98;;
64643;SDS011;51056;50.330;7.914;2023-09-12T08:54:33;20.20;;;9.15;;
64643;SDS011;51056;50.330;7.914;2023-09-12T08:57:41;24.60;;;9.07;;
64643;SDS011;51056;50.330;7.914;2023-09-12T09:00:45;23.20;;;8.88;;
64643;SDS011;51056;50.330;7.914;2023-09-12T09:03:48;17.92;;;8.65;;
64643;SDS011;51056;50.330;7.914;2023-09-12T09:06:52;22.25;;;8.32;;
64643;SDS011;51056;50.330;7.914;2023-09-12T09:09:57;22.45;;;9.55;;
64643;SDS011;51056;50.330;7.914;2023-09-12T09:13:00;34.70;;;12.13;;
64643;SDS011;51056;50.330;7.914;2023-09-12T09:19:24;28.15;;;9.07;;
64643;SDS011;51056;50.330;7.914;2023-09-12T09:22:48;16.33;;;7.28;;
64643;SDS011;51056;50.330;7.914;2023-09-12T09:25:58;21.08;;;8.18;;
64643;SDS011;51056;50.330;7.914;2023-09-12T09:29:06;18.20;;;7.63;;
64643;SDS011;51056;50.330;7.914;2023-09-12T09:32:10;13.20;;;7.20;;
64643;SDS011;51056;50.330;7.914;2023-09-12T09:35:20;22.05;;;7.88;;
64643;SDS011;51056;50.330;7.914;2023-09-12T09:38:23;18.33;;;6.95;;
64643;SDS011;51056;50.330;7.914;2023-09-12T09:41:27;15.07;;;6.45;;
64643;SDS011;51056;50.330;7.914;2023-09-12T09:44:30;30.10;;;9.38;;
64643;SDS011;51056;50.330;7.914;2023-09-12T09:47:34;14.88;;;6.78;;
64643;SDS011;51056;50.330;7.914;2023-09-12T09:50:37;20.70;;;8.05;;
64643;SDS011;51056;50.330;7.914;2023-09-12T09:53:41;21.30;;;6.97;;
64643;SDS011;51056;50.330;7.914;2023-09-12T09:56:50;22.27;;;7.80;;
64643;SDS011;51056;50.330;7.914;2023-09-12T09:59:56;21.13;;;7.10;;
64643;SDS011;51056;50.330;7.914;2023-09-12T10:02:59;15.65;;;7.63;;
64643;SDS011;51056;50.330;7.914;2023-09-12T10:06:06;16.77;;;6.95;;
64643;SDS011;51056;50.330;7.914;2023-09-12T10:09:12;17.75;;;6.95;;
64643;SDS011;51056;50.330;7.914;2023-09-12T10:12:17;11.68;;;6.38;;
64643;SDS011;51056;50.330;7.914;2023-09-12T10:15:20;16.33;;;6.45;;
64643;SDS011;51056;50.330;7.914;2023-09-12T10:18:25;13.85;;;6.65;;
64643;SDS011;51056;50.330;7.914;2023-09-12T10:21:31;12.18;;;6.93;;
64643;SDS011;51056;50.330;7.914;2023-09-12T10:24:37;14.68;;;6.45;;
64643;SDS011;51056;50.330;7.914;2023-09-12T10:27:42;17.58;;;7.13;;
64643;SDS011;51056;50.330;7.914;2023-09-12T10:30:45;15.35;;;7.35;;
64643;SDS011;51056;50.330;7.914;2023-09-12T10:33:48;14.63;;;8.18;;
64643;SDS011;51056;50.330;7.914;2023-09-12T10:36:52;14.25;;;7.75;;
64643;SDS011;51056;50.330;7.914;2023-09-12T10:39:58;15.73;;;7.80;;
64643;SDS011;51056;50.330;7.914;2023-09-12T10:43:03;17.00;;;7.35;;
64643;SDS011;51056;50.330;7.914;2023-09-12T10:46:08;17.15;;;6.82;;
64643;SDS011;51056;50.330;7.914;2023-09-12T10:49:13;17.02;;;8.10;;
64643;SDS011;51056;50.330;7.914;2023-09-12T10:52:24;16.88;;;8.07;;
64643;SDS011;51056;50.330;7.914;2023-09-12T10:55:28;13.23;;;7.72;;
64643;SDS011;51056;50.330;7.914;2023-09-12T10:58:32;9.23;;;6.07;;
64643;SDS011;51056;50.330;7.914;2023-09-12T11:01:35;14.82;;;6.80;;
64643;SDS011;51056;50.330;7.914;2023-09-12T11:04:39;14.25;;;7.45;;
64643;SDS011;51056;50.330;7.914;2023-09-12T11:07:44;15.98;;;6.90;;
64643;SDS011;51056;50.330;7.914;2023-09-12T11:14:19;17.40;;;7.07;;
64643;SDS011;51056;50.330;7.914;2023-09-12T11:17:22;12.20;;;5.93;;
64643;SDS011;51056;50.330;7.914;2023-09-12T11:20:27;13.95;;;6.78;;
64643;SDS011;51056;50.330;7.914;2023-09-12T11:23:54;8.80;;;6.88;;
64643;SDS011;51056;50.330;7.914;2023-09-12T11:30:12;12.98;;;7.15;;
64643;SDS011;51056;50.330;7.914;2023-09-12T11:33:16;14.60;;;6.80;;
64643;SDS011;51056;50.330;7.914;2023-09-12T11:36:22;13.45;;;6.82;;
64643;SDS011;51056;50.330;7.914;2023-09-12T11:39:38;16.30;;;7.05;;
64643;SDS011;51056;50.330;7.914;2023-09-12T11:42:48;13.07;;;7.35;;
64643;SDS011;51056;50.330;7.914;2023-09-12T11:45:56;12.23;;;7.03;;
64643;SDS011;51056;50.330;7.914;2023-09-12T11:49:01;15.30;;;7.28;;
64643;SDS011;51056;50.330;7.914;2023-09-12T11:52:09;12.93;;;7.47;;
64643;SDS011;51056;50.330;7.914;2023-09-12T11:55:21;12.30;;;7.05;;
64643;SDS011;51056;50.330;7.914;2023-09-12T11:58:26;13.63;;;7.72;;
64643;SDS011;51056;50.330;7.914;2023-09-12T12:01:30;14.40;;;7.80;;
64643;SDS011;51056;50.330;7.914;2023-09-12T12:04:33;18.25;;;8.57;;
64643;SDS011;51056;50.330;7.914;2023-09-12T12:07:37;14.80;;;7.40;;
64643;SDS011;51056;50.330;7.914;2023-09-12T12:10:41;14.93;;;7.93;;
64643;SDS011;51056;50.330;7.914;2023-09-12T12:13:44;15.30;;;8.88;;
64643;SDS011;51056;50.330;7.914;2023-09-12T12:16:48;14.00;;;9.20;;
64643;SDS011;51056;50.330;7.914;2023-09-12T12:19:51;18.27;;;9.18;;
64643;SDS011;51056;50.330;7.914;2023-09-12T12:22:55;13.10;;;8.18;;
64643;SDS011;51056;50.330;7.914;2023-09-12T12:26:17;15.90;;;8.57;;
64643;SDS011;51056;50.330;7.914;2023-09-12T12:29:22;13.80;;;8.63;;
64643;SDS011;51056;50.330;7.914;2023-09-12T12:36:44;15.68;;;8.35;;
64643;SDS011;51056;50.330;7.914;2023-09-12T12:39:47;17.17;;;8.90;;
64643;SDS011;51056;50.330;7.914;2023-09-12T12:42:51;13.02;;;9.57;;
64643;SDS011;51056;50.330;7.914;2023-09-12T12:45:58;16.23;;;9.70;;
64643;SDS011;51056;50.330;7.914;2023-09-12T12:49:01;18.35;;;9.88;;
64643;SDS011;51056;50.330;7.914;2023-09-12T12:52:08;16.60;;;9.88;;
64643;SDS011;51056;50.330;7.914;2023-09-12T12:55:12;16.63;;;9.73;;
64643;SDS011;51056;50.330;7.914;2023-09-12T12:58:17;21.75;;;11.52;;
64643;SDS011;51056;50.330;7.914;2023-09-12T13:01:20;13.13;;;9.38;;
64643;SDS011;51056;50.330;7.914;2023-09-12T13:04:24;17.25;;;8.88;;
64643;SDS011;51056;50.330;7.914;2023-09-12T13:07:28;11.38;;;8.85;;
64643;SDS011;51056;50.330;7.914;2023-09-12T13:10:31;13.50;;;9.10;;
64643;SDS011;51056;50.330;7.914;2023-09-12T13:13:35;11.65;;;9.20;;
64643;SDS011;51056;50.330;7.914;2023-09-12T13:16:39;16.80;;;9.48;;
64643;SDS011;51056;50.330;7.914;2023-09-12T13:19:43;11.98;;;9.15;;
64643;SDS011;51056;50.330;7.914;2023-09-12T13:22:46;15.82;;;10.23;;
64643;SDS011;51056;50.330;7.914;2023-09-12T13:25:50;18.73;;;10.75;;
64643;SDS011;51056;50.330;7.914;2023-09-12T13:29:10;15.93;;;8.95;;
64643;SDS011;51056;50.330;7.914;2023-09-12T13:32:18;18.23;;;8.90;;
64643;SDS011;51056;50.330;7.914;2023-09-12T13:35:24;16.63;;;9.32;;
64643;SDS011;51056;50.330;7.914;2023-09-12T13:38:28;12.85;;;7.50;;
64643;SDS011;51056;50.330;7.914;2023-09-12T13:41:31;15.23;;;9.07;;
64643;SDS011;51056;50.330;7.914;2023-09-12T13:44:35;11.77;;;8.65;;
64643;SDS011;51056;50.330;7.914;2023-09-12T13:47:58;11.57;;;8.45;;
64643;SDS011;51056;50.330;7.914;2023-09-12T13:51:02;12.32;;;8.32;;
64643;SDS011;51056;50.330;7.914;2023-09-12T13:54:05;12.32;;;7.38;;
64643;SDS011;51056;50.330;7.914;2023-09-12T13:57:10;13.18;;;7.32;;
64643;SDS011;51056;50.330;7.914;2023-09-12T14:00:23;15.05;;;8.55;;
64643;SDS011;51056;50.330;7.914;2023-09-12T14:03:36;13.63;;;8.75;;
64643;SDS011;51056;50.330;7.914;2023-09-12T14:06:39;16.15;;;9.25;;
64643;SDS011;51056;50.330;7.914;2023-09-12T14:09:43;11.63;;;8.40;;
64643;SDS011;51056;50.330;7.914;2023-09-12T14:12:49;11.88;;;8.73;;
64643;SDS011;51056;50.330;7.914;2023-09-12T14:15:53;12.05;;;8.02;;
64643;SDS011;51056;50.330;7.914;2023-09-12T14:18:57;13.02;;;8.00;;
64643;SDS011;51056;50.330;7.914;2023-09-12T14:22:00;11.93;;;7.68;;
64643;SDS011;51056;50.330;7.914;2023-09-12T14:25:04;12.00;;;8.85;;
64643;SDS011;51056;50.330;7.914;2023-09-12T14:28:08;13.10;;;8.15;;
64643;SDS011;51056;50.330;7.914;2023-09-12T14:31:12;14.30;;;8.57;;
64643;SDS011;51056;50.330;7.914;2023-09-12T14:34:17;12.80;;;8.40;;
64643;SDS011;51056;50.330;7.914;2023-09-12T14:37:27;12.02;;;8.60;;
64643;SDS011;51056;50.330;7.914;2023-09-12T14:40:32;10.52;;;8.45;;
64643;SDS011;51056;50.330;7.914;2023-09-12T14:43:38;13.77;;;8.45;;
64643;SDS011;51056;50.330;7.914;2023-09-12T14:46:41;14.00;;;8.27;;
64643;SDS011;51056;50.330;7.914;2023-09-12T14:49:47;13.40;;;9.10;;
64643;SDS011;51056;50.330;7.914;2023-09-12T14:52:51;17.25;;;8.38;;
64643;SDS011;51056;50.330;7.914;2023-09-12T14:55:54;14.93;;;8.43;;
64643;SDS011;51056;50.330;7.914;2023-09-12T14:59:01;14.35;;;7.82;;
64643;SDS011;51056;50.330;7.914;2023-09-12T15:02:05;13.80;;;8.00;;
64643;SDS011;51056;50.330;7.914;2023-09-12T15:05:08;16.58;;;9.88;;
64643;SDS011;51056;50.330;7.914;2023-09-12T15:08:12;15.30;;;9.13;;
64643;SDS011;51056;50.330;7.914;2023-09-12T15:11:15;12.52;;;8.57;;
64643;SDS011;51056;50.330;7.914;2023-09-12T15:14:19;14.07;;;8.48;;
64643;SDS011;51056;50.330;7.914;2023-09-12T15:17:22;11.63;;;7.95;;
64643;SDS011;51056;50.330;7.914;2023-09-12T15:20:26;11.80;;;8.02;;
64643;SDS011;51056;50.330;7.914;2023-09-12T15:23:30;10.73;;;8.25;;
64643;SDS011;51056;50.330;7.914;2023-09-12T15:26:35;17.95;;;8.32;;
64643;SDS011;51056;50.330;7.914;2023-09-12T15:29:41;15.60;;;9.07;;
64643;SDS011;51056;50.330;7.914;2023-09-12T15:32:45;14.38;;;8.45;;
64643;SDS011;51056;50.330;7.914;2023-09-12T15:35:51;14.32;;;7.63;;
64643;SDS011;51056;50.330;7.914;2023-09-12T15:38:54;14.35;;;8.48;;
64643;SDS011;51056;50.330;7.914;2023-09-12T15:41:59;18.83;;;9.30;;
64643;SDS011;51056;50.330;7.914;2023-09-12T15:45:02;14.65;;;9.32;;
64643;SDS011;51056;50.330;7.914;2023-09-12T15:48:07;14.52;;;9.05;;
64643;SDS011;51056;50.330;7.914;2023-09-12T15:51:11;11.43;;;8.65;;
64643;SDS011;51056;50.330;7.914;2023-09-12T15:54:16;18.48;;;9.77;;
64643;SDS011;51056;50.330;7.914;2023-09-12T15:57:20;13.30;;;9.38;;
64643;SDS011;51056;50.330;7.914;2023-09-12T16:00:22;14.20;;;8.98;;
64643;SDS011;51056;50.330;7.914;2023-09-12T16:03:26;15.00;;;8.32;;
64643;SDS011;51056;50.330;7.914;2023-09-12T16:06:29;14.00;;;9.35;;
64643;SDS011;51056;50.330;7.914;2023-09-12T16:09:33;13.27;;;9.90;;
64643;SDS011;51056;50.330;7.914;2023-09-12T16:12:36;16.20;;;9.93;;
64643;SDS011;51056;50.330;7.914;2023-09-12T16:15:40;15.60;;;8.93;;
64643;SDS011;51056;50.330;7.914;2023-09-12T16:18:43;12.00;;;8.55;;
64643;SDS011;51056;50.330;7.914;2023-09-12T16:21:47;14.90;;;8.20;;
64643;SDS011;51056;50.330;7.914;2023-09-12T16:24:53;15.55;;;9.30;;
64643;SDS011;51056;50.330;7.914;2023-09-12T16:27:56;18.27;;;9.82;;
64643;SDS011;51056;50.330;7.914;2023-09-12T16:31:00;13.32;;;8.88;;
64643;SDS011;51056;50.330;7.914;2023-09-12T16:34:03;14.63;;;9.52;;
64643;SDS011;51056;50.330;7.914;2023-09-12T16:37:06;13.00;;;9.75;;
64643;SDS011;51056;50.330;7.914;2023-09-12T16:40:10;14.02;;;9.65;;
64643;SDS011;51056;50.330;7.914;2023-09-12T16:43:17;18.58;;;12.43;;
64643;SDS011;51056;50.330;7.914;2023-09-12T16:46:27;20.13;;;11.88;;
64643;SDS011;51056;50.330;7.914;2023-09-12T16:49:31;13.95;;;10.63;;
64643;SDS011;51056;50.330;7.914;2023-09-12T16:52:36;13.43;;;10.43;;
64643;SDS011;51056;50.330;7.914;2023-09-12T16:55:40;14.10;;;9.43;;
64643;SDS011;51056;50.330;7.914;2023-09-12T16:58:43;12.70;;;9.10;;
64643;SDS011;51056;50.330;7.914;2023-09-12T17:01:46;10.95;;;9.23;;
64643;SDS011;51056;50.330;7.914;2023-09-12T17:04:50;17.27;;;10.55;;
64643;SDS011;51056;50.330;7.914;2023-09-12T17:07:53;15.05;;;10.70;;
64643;SDS011;51056;50.330;7.914;2023-09-12T17:10:57;14.38;;;10.35;;
64643;SDS011;51056;50.330;7.914;2023-09-12T17:14:00;18.40;;;12.75;;
64643;SDS011;51056;50.330;7.914;2023-09-12T17:17:03;21.35;;;11.45;;
64643;SDS011;51056;50.330;7.914;2023-09-12T17:20:09;15.68;;;11.20;;
64643;SDS011;51056;50.330;7.914;2023-09-12T17:23:13;18.27;;;11.43;;
64643;SDS011;51056;50.330;7.914;2023-09-12T17:26:17;17.27;;;10.45;;
64643;SDS011;51056;50.330;7.914;2023-09-12T17:29:20;16.50;;;11.13;;
64643;SDS011;51056;50.330;7.914;2023-09-12T17:32:25;16.17;;;10.10;;
64643;SDS011;51056;50.330;7.914;2023-09-12T17:35:31;19.60;;;11.55;;
64643;SDS011;51056;50.330;7.914;2023-09-12T17:38:34;16.75;;;10.35;;
64643;SDS011;51056;50.330;7.914;2023-09-12T17:41:39;14.82;;;10.77;;
64643;SDS011;51056;50.330;7.914;2023-09-12T17:44:42;14.38;;;10.35;;
64643;SDS011;51056;50.330;7.914;2023-09-12T17:47:47;17.50;;;10.45;;
64643;SDS011;51056;50.330;7.914;2023-09-12T17:50:54;16.88;;;10.30;;
64643;SDS011;51056;50.330;7.914;2023-09-12T17:53:58;14.20;;;10.23;;
64643;SDS011;51056;50.330;7.914;2023-09-12T17:57:03;13.40;;;10.55;;
64643;SDS011;51056;50.330;7.914;2023-09-12T18:00:11;18.08;;;10.60;;
64643;SDS011;51056;50.330;7.914;2023-09-12T18:03:34;12.27;;;10.23;;
64643;SDS011;51056;50.330;7.914;2023-09-12T18:06:40;15.85;;;10.68;;
64643;SDS011;51056;50.330;7.914;2023-09-12T18:09:45;13.85;;;9.63;;
64643;SDS011;51056;50.330;7.914;2023-09-12T18:12:52;18.70;;;11.38;;
64643;SDS011;51056;50.330;7.914;2023-09-12T18:15:57;19.30;;;11.60;;
64643;SDS011;51056;50.330;7.914;2023-09-12T18:19:14;14.18;;;10.02;;
64643;SDS011;51056;50.330;7.914;2023-09-12T18:22:18;20.00;;;11.50;;
64643;SDS011;51056;50.330;7.914;2023-09-12T18:25:23;16.67;;;11.27;;
64643;SDS011;51056;50.330;7.914;2023-09-12T18:28:45;19.13;;;10.73;;
64643;SDS011;51056;50.330;7.914;2023-09-12T18:31:53;19.70;;;10.80;;
64643;SDS011;51056;50.330;7.914;2023-09-12T18:35:02;16.63;;;12.05;;
64643;SDS011;51056;50.330;7.914;2023-09-12T18:38:09;15.90;;;11.07;;
64643;SDS011;51056;50.330;7.914;2023-09-12T18:41:17;15.90;;;10.77;;
64643;SDS011;51056;50.330;7.914;2023-09-12T18:44:24;15.15;;;11.35;;